Time;durP1;ratioP1;P1;durP2;ratioP2;P2;SDS_P1;SDS_P2;PMS_P1;PMS_P2;Temp;Humidity;BMP_temperature;BMP_pressure;BME280_temperature;BME280_humidity;BME280_pressure;Samples;Min_cycle;Max_cycle;Signal;HPM_P1;HPM_P2
2022/10/08 00:01:48;;;;;;;10.03;3.53;;;;;;;12.74;77.50;101540.03;5255531;28;20032;-73
2022/10/08 00:04:20;;;;;;;13.17;3.20;;;;;;;12.69;77.92;101555.22;5258711;28;20032;-72
2022/10/08 00:06:52;;;;;;;14.20;3.10;;;;;;;12.65;77.70;101543.22;5259849;28;20041;-72
2022/10/08 00:09:23;;;;;;;11.27;3.17;;;;;;;12.56;78.10;101523.56;5265311;28;20703;-72
2022/10/08 00:11:56;;;;;;;13.00;3.47;;;;;;;12.65;78.37;101543.22;5255708;28;20024;-72
2022/10/08 00:14:27;;;;;;;9.87;3.83;;;;;;;12.68;78.15;101541.25;5255890;28;20021;-73
2022/10/08 00:16:59;;;;;;;12.40;3.23;;;;;;;12.65;78.68;101538.81;5257551;28;20538;-72
2022/10/08 00:19:30;;;;;;;13.63;3.97;;;;;;;12.63;78.84;101540.69;5253954;28;20005;-73
2022/10/08 00:22:01;;;;;;;10.40;3.13;;;;;;;12.68;79.03;101543.91;5269008;28;20023;-73
2022/10/08 00:24:33;;;;;;;12.43;3.20;;;;;;;12.66;79.12;101535.25;5255635;28;20025;-73
2022/10/08 00:27:04;;;;;;;11.93;4.30;;;;;;;12.67;79.22;101543.97;5254694;28;20032;-72
2022/10/08 00:29:35;;;;;;;18.03;3.53;;;;;;;12.72;79.06;101534.06;5254908;28;20045;-73
2022/10/08 00:32:06;;;;;;;19.00;3.30;;;;;;;12.68;79.70;101543.91;5254712;28;20052;-73
2022/10/08 00:34:38;;;;;;;13.47;3.87;;;;;;;12.78;79.60;101544.19;5253400;28;20032;-73
2022/10/08 00:37:10;;;;;;;11.77;2.87;;;;;;;12.77;79.84;101542.50;5254763;28;20508;-72
2022/10/08 00:39:43;;;;;;;12.43;3.33;;;;;;;12.66;80.88;101530.00;5252439;28;20037;-73
2022/10/08 00:42:15;;;;;;;12.60;3.30;;;;;;;12.75;80.91;101539.13;5254465;28;20039;-72
2022/10/08 00:44:50;;;;;;;14.60;3.60;;;;;;;12.77;80.99;101532.00;5253124;28;20036;-73
2022/10/08 00:47:38;;;;;;;14.03;3.53;;;;;;;12.81;80.75;101532.66;5254262;28;20104;-72
2022/10/08 00:50:18;;;;;;;15.73;4.47;;;;;;;12.78;81.30;101541.56;5250359;28;20025;-72
2022/10/08 00:52:54;;;;;;;10.97;3.90;;;;;;;12.83;81.59;101546.53;5253346;28;20036;-72
2022/10/08 00:55:26;;;;;;;16.27;3.80;;;;;;;12.80;81.83;101547.59;5253176;28;20036;-73
2022/10/08 00:58:12;;;;;;;10.53;3.00;;;;;;;12.86;81.67;101546.41;5253205;28;20116;-72
2022/10/08 01:00:44;;;;;;;16.07;4.80;;;;;;;12.80;82.13;101542.34;5254390;28;20031;-72
2022/10/08 01:03:15;;;;;;;17.70;4.17;;;;;;;12.80;83.08;101546.72;5253679;28;20481;-72
2022/10/08 01:05:51;;;;;;;13.10;3.40;;;;;;;12.85;82.53;101549.94;5253113;28;20295;-72
2022/10/08 01:08:34;;;;;;;11.83;3.03;;;;;;;12.83;83.23;101559.69;5252938;28;20044;-73
2022/10/08 01:11:33;;;;;;;19.10;3.20;;;;;;;12.82;83.77;101565.91;5298986;22;20076;-72
2022/10/08 01:14:22;;;;;;;13.87;3.83;;;;;;;12.81;84.61;101570.28;5267761;28;20111;-72
2022/10/08 01:17:14;;;;;;;12.57;3.30;;;;;;;12.83;86.95;101575.47;5273041;28;20021;-73
2022/10/08 01:20:19;;;;;;;14.53;3.57;;;;;;;12.85;100.00;101580.63;5272872;28;20054;-72
2022/10/08 01:23:18;;;;;;;17.30;4.03;;;;;;;12.77;100.00;101579.31;5273818;28;20024;-72
2022/10/08 01:26:02;;;;;;;15.40;3.43;;;;;;;12.66;100.00;101582.53;5273310;28;20025;-72
2022/10/08 01:28:38;;;;;;;12.33;2.83;;;;;;;12.69;100.00;101571.00;5273798;28;20028;-73
2022/10/08 01:31:21;;;;;;;14.63;3.77;;;;;;;12.69;100.00;101566.59;5272034;28;20545;-73
2022/10/08 01:34:00;;;;;;;13.43;2.83;;;;;;;12.70;100.00;101567.44;5272580;28;20265;-72
2022/10/08 01:36:37;;;;;;;15.00;3.00;;;;;;;12.62;100.00;101569.69;5273572;28;20025;-73
2022/10/08 01:39:16;;;;;;;13.60;2.90;;;;;;;12.70;100.00;101572.72;5273446;28;20029;-72
2022/10/08 01:41:55;;;;;;;9.27;2.90;;;;;;;12.61;100.00;101567.97;5273208;28;20036;-72
2022/10/08 01:44:31;;;;;;;10.23;3.23;;;;;;;12.66;100.00;101577.28;5252913;28;20029;-73
2022/10/08 01:47:06;;;;;;;11.00;2.83;;;;;;;12.62;100.00;101569.69;5251284;28;20029;-73
2022/10/08 01:49:46;;;;;;;11.60;3.10;;;;;;;12.66;100.00;101576.44;5251602;28;20056;-72
2022/10/08 01:52:25;;;;;;;12.47;2.50;;;;;;;12.57;100.00;101578.66;5252089;28;20121;-72
2022/10/08 01:55:00;;;;;;;9.50;2.57;;;;;;;12.64;100.00;101578.28;5252616;28;20040;-73
2022/10/08 01:57:33;;;;;;;9.43;2.77;;;;;;;12.57;100.00;101573.41;5252485;28;20378;-72
2022/10/08 02:00:08;;;;;;;11.13;4.23;;;;;;;12.56;100.00;101587.50;5250971;28;20104;-73
2022/10/08 02:02:41;;;;;;;11.63;2.93;;;;;;;12.57;100.00;101593.56;5250755;28;20398;-72
2022/10/08 02:05:12;;;;;;;12.73;2.60;;;;;;;12.52;100.00;101585.09;5251195;28;20027;-72
2022/10/08 02:07:44;;;;;;;9.73;2.87;;;;;;;12.38;100.00;101575.38;5252136;28;20040;-73
2022/10/08 02:10:22;;;;;;;10.50;2.83;;;;;;;12.45;100.00;101577.56;5252099;28;20052;-73
2022/10/08 02:12:54;;;;;;;8.30;2.40;;;;;;;12.50;100.00;101581.75;5250774;28;20082;-73
2022/10/08 02:15:33;;;;;;;7.23;2.33;;;;;;;12.52;100.00;101585.09;5252447;28;20025;-73
2022/10/08 02:18:17;;;;;;;9.83;2.73;;;;;;;12.38;100.00;101580.63;5252134;28;20021;-73
2022/10/08 02:21:08;;;;;;;11.70;3.42;;;;;;;12.37;100.00;101584.19;5251426;28;20103;-73
2022/10/08 02:23:50;;;;;;;13.30;2.70;;;;;;;12.34;100.00;101583.41;5251656;28;20032;-73
2022/10/08 02:26:30;;;;;;;5.97;2.00;;;;;;;12.28;100.00;101583.78;5251826;28;20033;-73
2022/10/08 02:29:13;;;;;;;6.23;2.10;;;;;;;12.27;100.00;101587.31;5254602;28;20546;-73
2022/10/08 02:31:56;;;;;;;11.87;2.57;;;;;;;12.20;100.00;101591.22;5256059;28;20079;-73
2022/10/08 02:34:51;;;;;;;11.13;3.37;;;;;;;12.18;100.00;101588.66;5255235;28;20029;-73
2022/10/08 02:37:28;;;;;;;11.32;2.70;;;;;;;12.25;100.00;101596.22;5254617;28;20025;-73
2022/10/08 02:40:04;;;;;;;10.47;2.87;;;;;;;12.19;100.00;101590.38;5255711;28;20487;-73
2022/10/08 02:42:41;;;;;;;8.00;2.37;;;;;;;12.13;100.00;101595.94;5253851;28;20021;-72
2022/10/08 02:45:20;;;;;;;6.23;1.70;;;;;;;12.17;100.00;101586.13;5255580;28;20021;-73
2022/10/08 02:48:01;;;;;;;7.30;2.43;;;;;;;12.13;100.00;101580.19;5254691;28;20024;-73
2022/10/08 02:50:37;;;;;;;8.80;2.00;;;;;;;12.05;100.00;101585.00;5254626;28;20025;-73
2022/10/08 02:53:13;;;;;;;6.80;2.00;;;;;;;12.09;100.00;101583.94;5255257;28;20025;-72
2022/10/08 02:55:59;;;;;;;7.97;1.70;;;;;;;12.15;100.00;101588.00;5255714;28;20463;-73
2022/10/08 02:58:31;;;;;;;9.67;2.50;;;;;;;12.04;100.00;101591.19;5255647;28;20088;-73
2022/10/08 03:01:15;;;;;;;13.10;1.60;;;;;;;12.12;100.00;101582.91;5253486;28;20047;-73
2022/10/08 03:03:54;;;;;;;10.75;3.17;;;;;;;12.02;100.00;101577.28;5254698;28;20510;-73
2022/10/08 03:06:27;;;;;;;10.27;2.17;;;;;;;11.99;100.00;101583.53;5255732;28;20025;-73
2022/10/08 03:09:00;;;;;;;7.90;2.30;;;;;;;11.85;100.00;101566.75;5254619;28;20021;-73
2022/10/08 03:11:33;;;;;;;7.20;1.67;;;;;;;11.93;100.00;101589.13;5254934;28;20063;-73
2022/10/08 03:14:08;;;;;;;7.30;2.60;;;;;;;11.74;100.00;101584.88;5254703;28;20037;-73
2022/10/08 03:16:42;;;;;;;6.70;1.90;;;;;;;11.95;100.00;101592.53;5256608;28;20025;-73
2022/10/08 03:19:15;;;;;;;10.38;2.15;;;;;;;11.94;100.00;101594.28;5256201;28;20036;-73
2022/10/08 03:21:51;;;;;;;10.37;2.10;;;;;;;11.99;100.00;101591.41;5255049;28;20028;-72
2022/10/08 03:24:22;;;;;;;6.53;2.10;;;;;;;11.98;100.00;101602.84;5255643;28;20035;-73
2022/10/08 03:26:54;;;;;;;11.17;3.03;;;;;;;11.83;100.00;101600.09;5254301;28;20033;-73
2022/10/08 03:29:25;;;;;;;8.83;2.47;;;;;;;11.90;100.00;101608.53;5255285;28;20535;-74
2022/10/08 03:31:56;;;;;;;6.43;1.63;;;;;;;11.84;100.00;101595.72;5256284;28;20103;-73
2022/10/08 03:34:28;;;;;;;7.27;2.30;;;;;;;11.90;100.00;101607.69;5252410;28;20021;-73
2022/10/08 03:36:59;;;;;;;7.67;2.73;;;;;;;11.85;100.00;101606.13;5254879;28;20029;-73
2022/10/08 03:39:30;;;;;;;9.90;2.20;;;;;;;11.82;100.00;101615.94;5253846;28;20029;-73
2022/10/08 03:42:01;;;;;;;7.27;2.30;;;;;;;11.90;100.00;101615.56;5253940;28;20035;-73
2022/10/08 03:44:33;;;;;;;6.87;2.00;;;;;;;11.79;100.00;101605.63;5254206;28;20328;-73
2022/10/08 03:47:04;;;;;;;6.10;1.77;;;;;;;11.81;100.00;101623.00;5252539;28;20025;-73
2022/10/08 03:49:35;;;;;;;14.27;2.97;;;;;;;11.78;100.00;101617.06;5253583;28;20109;-73
2022/10/08 03:52:07;;;;;;;6.40;2.10;;;;;;;11.81;100.00;101628.25;5238212;28;20334;-73
2022/10/08 03:54:38;;;;;;;7.27;2.20;;;;;;;11.70;100.00;101612.19;5233770;28;20032;-73
2022/10/08 03:57:09;;;;;;;6.43;2.23;;;;;;;11.80;100.00;101625.69;5250063;28;20033;-73
2022/10/08 03:59:40;;;;;;;7.10;2.00;;;;;;;11.72;100.00;101629.56;5254276;28;20293;-72
2022/10/08 04:02:12;;;;;;;7.60;1.90;;;;;;;11.72;100.00;101633.97;5253962;28;20033;-73
2022/10/08 04:04:43;;;;;;;6.73;3.00;;;;;;;11.65;100.00;101625.56;5252866;28;20021;-73
2022/10/08 04:07:14;;;;;;;5.83;2.20;;;;;;;11.62;100.00;101618.69;5238078;28;20039;-73
2022/10/08 04:09:46;;;;;;;8.40;2.10;;;;;;;11.57;100.00;101632.97;5233757;28;20048;-73
2022/10/08 04:12:17;;;;;;;7.43;2.10;;;;;;;11.54;100.00;101631.34;5244369;28;20029;-73
2022/10/08 04:14:48;;;;;;;7.97;2.70;;;;;;;11.55;100.00;101626.97;5255746;28;20044;-70
2022/10/08 04:17:19;;;;;;;7.50;2.70;;;;;;;11.56;100.00;101634.75;5255139;28;20071;-71
2022/10/08 04:19:51;;;;;;;7.13;2.20;;;;;;;11.52;100.00;101625.31;5254500;28;20059;-71
2022/10/08 04:22:23;;;;;;;5.13;2.90;;;;;;;11.44;100.00;101630.13;5255213;28;20079;-73
2022/10/08 04:24:54;;;;;;;8.40;3.63;;;;;;;11.50;100.00;101635.09;5250124;28;20017;-73
2022/10/08 04:27:26;;;;;;;9.37;4.63;;;;;;;11.53;100.00;101637.53;5240957;28;20045;-73
2022/10/08 04:29:57;;;;;;;9.00;5.83;;;;;;;11.53;100.00;101644.56;5242267;28;20099;-72
2022/10/08 04:32:28;;;;;;;12.80;9.33;;;;;;;11.58;100.00;101648.66;5235762;28;20032;-73
2022/10/08 04:34:59;;;;;;;15.83;9.67;;;;;;;11.52;100.00;101642.88;5242104;28;20041;-72
2022/10/08 04:37:31;;;;;;;17.50;9.87;;;;;;;11.58;100.00;101658.28;5245794;28;20025;-72
2022/10/08 04:40:02;;;;;;;15.47;11.43;;;;;;;11.61;100.00;101648.47;5243089;28;20024;-73
2022/10/08 04:42:33;;;;;;;20.70;12.33;;;;;;;11.65;100.00;101653.56;5241759;28;20056;-73
2022/10/08 04:45:05;;;;;;;19.83;13.50;;;;;;;11.57;100.00;101660.06;5241576;28;20112;-72
2022/10/08 04:47:36;;;;;;;22.33;15.43;;;;;;;11.60;100.00;101657.28;5239812;28;20082;-72
2022/10/08 04:50:08;;;;;;;20.93;16.07;;;;;;;11.59;100.00;101652.94;5250753;28;20032;-72
2022/10/08 04:52:39;;;;;;;24.23;19.73;;;;;;;11.62;100.00;101659.84;5252531;28;20021;-72
2022/10/08 04:55:10;;;;;;;26.17;18.33;;;;;;;11.67;100.00;101677.97;5252582;28;20033;-72
2022/10/08 04:57:41;;;;;;;30.07;21.43;;;;;;;11.33;100.00;101623.66;5252862;28;20029;-72
2022/10/08 05:00:13;;;;;;;30.10;22.43;;;;;;;11.69;100.00;101682.22;5254281;28;20025;-73
2022/10/08 05:02:44;;;;;;;36.47;23.63;;;;;;;11.63;100.00;101682.50;5254652;28;20036;-72
2022/10/08 05:05:16;;;;;;;36.23;24.07;;;;;;;11.69;100.00;101686.59;5247296;28;20665;-72
2022/10/08 05:07:47;;;;;;;36.87;23.27;;;;;;;11.68;100.00;101690.13;5245853;28;20518;-72
2022/10/08 05:10:18;;;;;;;39.57;26.40;;;;;;;11.69;100.00;101686.59;5242297;28;20049;-72
2022/10/08 05:12:50;;;;;;;38.30;24.70;;;;;;;11.68;100.00;101687.50;5245546;28;20017;-71
2022/10/08 05:15:21;;;;;;;35.77;26.20;;;;;;;11.71;100.00;101695.25;5242107;28;20033;-72
2022/10/08 05:17:52;;;;;;;33.53;25.73;;;;;;;11.74;100.00;101700.34;5241251;28;20104;-71
2022/10/08 05:20:23;;;;;;;40.97;27.10;;;;;;;11.73;100.00;101701.25;5236169;28;20029;-72
2022/10/08 05:22:55;;;;;;;37.20;27.63;;;;;;;11.62;100.00;101686.91;5231509;28;20018;-72
2022/10/08 05:25:30;;;;;;;36.87;27.93;;;;;;;11.72;100.00;101696.94;5232190;28;20029;-72
2022/10/08 05:28:03;;;;;;;42.80;28.87;;;;;;;11.63;100.00;101693.00;5231073;28;20114;-72
2022/10/08 05:30:34;;;;;;;38.60;29.37;;;;;;;11.67;100.00;101702.44;5231712;28;20514;-72
2022/10/08 05:33:06;;;;;;;38.87;29.77;;;;;;;11.73;100.00;101709.13;5230455;28;20034;-72
2022/10/08 05:35:37;;;;;;;36.47;27.87;;;;;;;11.61;100.00;101705.34;5230691;28;20247;-72
2022/10/08 05:38:08;;;;;;;40.33;29.33;;;;;;;11.64;100.00;101705.22;5230066;28;20021;-72
2022/10/08 05:40:40;;;;;;;41.70;30.03;;;;;;;11.62;100.00;101712.31;5228053;28;20029;-72
2022/10/08 05:43:11;;;;;;;39.37;31.00;;;;;;;11.65;100.00;101711.28;5230812;28;20083;-73
2022/10/08 05:45:49;;;;;;;42.33;29.77;;;;;;;11.65;100.00;101721.78;5232062;28;20527;-72
2022/10/08 05:48:20;;;;;;;45.03;31.90;;;;;;;11.56;100.00;101718.69;5231550;28;20026;-72
2022/10/08 05:50:51;;;;;;;41.27;30.93;;;;;;;11.66;100.00;101726.13;5232462;28;20029;-73
2022/10/08 05:53:22;;;;;;;38.17;30.17;;;;;;;11.64;100.00;101733.22;5232932;28;20070;-73
2022/10/08 05:56:01;;;;;;;47.17;33.20;;;;;;;11.68;100.00;101737.38;5233076;28;20706;-73
2022/10/08 05:58:35;;;;;;;44.80;32.07;;;;;;;11.52;100.00;101724.19;5231212;28;20494;-72
2022/10/08 06:01:11;;;;;;;48.23;33.20;;;;;;;11.56;100.00;101739.69;5231637;28;20029;-72
2022/10/08 06:03:46;;;;;;;45.23;32.43;;;;;;;11.51;100.00;101739.06;5233013;28;20029;-72
2022/10/08 06:06:18;;;;;;;45.97;32.47;;;;;;;11.49;100.00;101744.41;5234103;28;20124;-73
2022/10/08 06:08:54;;;;;;;48.70;33.83;;;;;;;11.54;100.00;101745.94;5235770;28;20056;-72
2022/10/08 06:11:28;;;;;;;47.57;32.63;;;;;;;11.52;100.00;101753.88;5234672;28;20046;-73
2022/10/08 06:14:00;;;;;;;41.25;31.10;;;;;;;11.47;100.00;101755.88;5247571;28;20039;-72
2022/10/08 06:16:33;;;;;;;43.23;31.60;;;;;;;11.46;100.00;101751.56;5255995;28;20506;-72
2022/10/08 06:19:06;;;;;;;45.63;33.17;;;;;;;11.50;100.00;101767.06;5255355;28;20029;-72
2022/10/08 06:21:37;;;;;;;46.10;31.90;;;;;;;11.50;100.00;101771.50;5256244;28;20027;-72
2022/10/08 06:24:10;;;;;;;43.00;30.83;;;;;;;11.47;100.00;101780.34;5255623;28;20025;-73
2022/10/08 06:26:43;;;;;;;42.20;29.70;;;;;;;11.48;100.00;101783.81;5256180;28;20491;-72
2022/10/08 06:29:16;;;;;;;43.93;30.83;;;;;;;11.42;100.00;101781.47;5255233;28;20044;-72
2022/10/08 06:31:47;;;;;;;49.60;34.37;;;;;;;11.44;100.00;101777.00;5256081;28;20052;-72
2022/10/08 06:34:19;;;;;;;53.00;31.87;;;;;;;11.41;100.00;101782.41;5254284;28;20443;-72
2022/10/08 06:36:50;;;;;;;44.77;31.60;;;;;;;11.48;100.00;101789.91;5256006;28;20448;-72
2022/10/08 06:39:21;;;;;;;43.40;29.70;;;;;;;11.55;100.00;101802.72;5253886;28;20487;-73
2022/10/08 06:41:52;;;;;;;40.90;30.47;;;;;;;11.45;100.00;101805.78;5255110;28;20510;-73
2022/10/08 06:44:24;;;;;;;44.73;30.40;;;;;;;11.45;100.00;101799.72;5255622;28;20491;-72
2022/10/08 06:46:55;;;;;;;44.13;30.53;;;;;;;11.52;100.00;101811.59;5255788;28;20052;-72
2022/10/08 06:49:26;;;;;;;39.73;29.27;;;;;;;11.57;100.00;101820.09;5254432;28;20024;-72
2022/10/08 06:51:57;;;;;;;40.93;28.00;;;;;;;11.57;100.00;101825.34;5255394;28;20021;-72
2022/10/08 06:54:29;;;;;;;40.10;27.93;;;;;;;11.66;100.00;101829.28;5255022;28;20033;-72
2022/10/08 06:57:00;;;;;;;38.13;28.20;;;;;;;11.69;100.00;101834.41;5255598;28;20029;-72
2022/10/08 06:59:32;;;;;;;40.93;28.27;;;;;;;11.73;100.00;101830.69;5255540;28;20029;-72
2022/10/08 07:02:03;;;;;;;35.60;24.43;;;;;;;11.68;100.00;101837.94;5254959;28;20032;-72
2022/10/08 07:04:34;;;;;;;34.60;25.90;;;;;;;11.71;100.00;101855.31;5254520;28;20029;-72
2022/10/08 07:07:06;;;;;;;34.63;23.47;;;;;;;11.69;100.00;101844.03;5254520;28;20089;-72
2022/10/08 07:09:37;;;;;;;32.07;22.43;;;;;;;11.89;100.00;101863.19;5255657;28;20435;-72
2022/10/08 07:12:08;;;;;;;30.03;21.93;;;;;;;11.92;100.00;101860.44;5253484;28;20441;-72
2022/10/08 07:14:40;;;;;;;27.03;21.67;;;;;;;11.91;100.00;101872.72;5253771;28;20060;-72
2022/10/08 07:17:11;;;;;;;29.47;20.47;;;;;;;11.92;100.00;101876.19;5255398;28;20074;-73
2022/10/08 07:19:42;;;;;;;29.13;19.87;;;;;;;12.00;100.00;101881.06;5255882;28;20094;-73
2022/10/08 07:22:14;;;;;;;29.63;18.50;;;;;;;11.80;100.00;101846.97;5256077;28;20422;-73
2022/10/08 07:24:45;;;;;;;25.60;17.33;;;;;;;12.06;100.00;101883.41;5238773;28;20022;-73
2022/10/08 07:27:18;;;;;;;29.50;18.13;;;;;;;12.10;100.00;101883.19;5243792;28;20116;-73
2022/10/08 07:29:49;;;;;;;21.93;16.03;;;;;;;12.09;100.00;101884.13;5249454;28;20026;-73
2022/10/08 07:32:20;;;;;;;27.97;16.67;;;;;;;12.20;100.00;101888.81;5246494;28;20551;-73
2022/10/08 07:34:51;;;;;;;27.17;15.60;;;;;;;12.23;100.00;101895.72;5260314;28;20033;-72
2022/10/08 07:37:23;;;;;;;21.83;14.23;;;;;;;12.25;100.00;101893.00;5261339;28;20131;-71
2022/10/08 07:39:54;;;;;;;20.13;13.10;;;;;;;12.33;100.00;101896.94;5253830;28;20078;-72
2022/10/08 07:42:25;;;;;;;17.87;10.57;;;;;;;12.41;100.00;101904.44;5260368;28;20029;-74
2022/10/08 07:44:57;;;;;;;16.70;10.97;;;;;;;12.49;100.00;101908.44;5252181;28;20029;-73
2022/10/08 07:47:28;;;;;;;20.63;12.57;;;;;;;12.55;100.00;101911.59;5252029;28;20036;-72
2022/10/08 07:49:59;;;;;;;17.20;9.40;;;;;;;12.58;100.00;101916.69;5249939;28;20550;-74
2022/10/08 07:52:30;;;;;;;16.00;8.97;;;;;;;12.65;100.00;101916.41;5248877;28;20438;-72
2022/10/08 07:55:02;;;;;;;18.00;9.23;;;;;;;12.75;100.00;101912.38;5264706;28;20751;-72
2022/10/08 07:57:33;;;;;;;14.13;8.27;;;;;;;12.85;100.00;101911.88;5249925;28;20033;-71
2022/10/08 08:00:05;;;;;;;12.13;6.30;;;;;;;12.94;100.00;101922.78;5262874;28;20052;-73
2022/10/08 08:02:37;;;;;;;12.97;6.40;;;;;;;13.09;100.00;101916.78;5256772;28;20353;-75
2022/10/08 08:05:08;;;;;;;13.90;6.63;;;;;;;13.59;100.00;101930.78;5257960;28;20029;-71
2022/10/08 08:07:39;;;;;;;10.27;5.40;;;;;;;14.02;100.00;101924.00;5239933;28;20131;-71
2022/10/08 08:10:10;;;;;;;12.60;4.80;;;;;;;14.68;100.00;101934.25;5257477;28;20024;-71
2022/10/08 08:12:42;;;;;;;14.67;5.10;;;;;;;15.93;100.00;101933.66;5253102;28;20025;-71
2022/10/08 08:15:13;;;;;;;13.10;4.87;;;;;;;16.92;100.00;101939.41;5251799;28;20076;-73
2022/10/08 08:17:44;;;;;;;10.43;4.00;;;;;;;18.02;94.59;101929.03;5251579;28;20032;-71
2022/10/08 08:20:15;;;;;;;8.20;3.60;;;;;;;18.89;85.36;101934.06;5253336;28;20021;-71
2022/10/08 08:22:47;;;;;;;8.80;3.53;;;;;;;19.90;81.37;101942.00;5253331;28;20047;-71
2022/10/08 08:25:18;;;;;;;8.10;3.37;;;;;;;20.16;80.24;101947.00;5251602;28;20025;-74
2022/10/08 08:27:49;;;;;;;11.63;4.38;;;;;;;21.02;70.89;101939.78;5255503;28;20465;-72
2022/10/08 08:30:20;;;;;;;13.90;3.72;;;;;;;21.44;58.20;101951.25;5254655;28;20578;-76
2022/10/08 08:32:52;;;;;;;9.40;3.50;;;;;;;20.72;59.12;101962.72;5246913;28;20483;-72
2022/10/08 08:35:23;;;;;;;11.10;3.30;;;;;;;19.67;62.06;101981.09;5239180;28;20515;-71
2022/10/08 08:37:54;;;;;;;11.70;3.78;;;;;;;19.39;63.72;101981.50;5251716;28;20032;-71
2022/10/08 08:40:27;;;;;;;8.15;2.95;;;;;;;21.05;58.00;101973.28;5253409;28;20402;-70
2022/10/08 08:42:58;;;;;;;7.55;2.60;;;;;;;22.04;56.68;101973.53;5249650;28;20946;-70
2022/10/08 08:45:34;;;;;;;9.23;2.67;;;;;;;22.99;53.13;101984.44;5249499;28;20044;-69
2022/10/08 08:48:27;;;;;;;8.75;4.03;;;;;;;23.84;56.40;101967.38;5249845;28;20029;-70
2022/10/08 08:50:59;;;;;;;9.90;2.92;;;;;;;24.00;49.54;102001.44;5252565;28;20409;-70
2022/10/08 08:53:32;;;;;;;9.32;2.92;;;;;;;25.27;47.61;101996.75;5251576;28;20070;-71
2022/10/08 08:56:07;;;;;;;6.33;2.10;;;;;;;25.11;41.58;101998.38;5247386;28;20029;-70
2022/10/08 08:58:50;;;;;;;8.38;2.35;;;;;;;26.03;43.11;102001.28;5252753;28;20547;-73
2022/10/08 09:01:39;;;;;;;7.47;1.90;;;;;;;26.76;42.19;102008.59;5237000;28;20039;-72
2022/10/08 09:04:22;;;;;;;8.02;2.50;;;;;;;27.00;37.51;102009.53;5246583;28;20025;-72
2022/10/08 09:06:57;;;;;;;9.50;2.55;;;;;;;27.06;37.30;102006.19;5241733;28;20040;-71
2022/10/08 09:09:49;;;;;;;8.23;1.45;;;;;;;27.38;40.67;102008.06;5249939;28;20503;-72
2022/10/08 09:12:40;;;;;;;6.15;2.03;;;;;;;26.98;34.57;102003.50;5258842;28;20041;-71
2022/10/08 09:15:27;;;;;;;6.95;2.15;;;;;;;28.93;36.09;102012.50;5246380;28;20187;-72
2022/10/08 09:18:01;;;;;;;6.65;2.05;;;;;;;27.22;34.31;102020.56;5247765;28;20109;-72
2022/10/08 09:20:33;;;;;;;9.82;2.47;;;;;;;25.23;35.82;102023.06;5246683;28;20087;-71
2022/10/08 09:23:31;;;;;;;7.22;2.40;;;;;;;25.94;38.21;102029.09;5251677;28;20679;-71
2022/10/08 09:26:03;;;;;;;5.25;1.55;;;;;;;24.81;36.84;102021.97;5239048;28;20064;-71
2022/10/08 09:28:40;;;;;;;6.90;1.65;;;;;;;23.50;39.07;102027.69;5245887;28;20025;-72
2022/10/08 09:31:19;;;;;;;5.15;1.48;;;;;;;25.30;38.90;102033.13;5256966;28;20020;-71
2022/10/08 09:34:05;;;;;;;10.02;2.20;;;;;;;25.65;37.93;102031.25;5263398;28;20017;-73
2022/10/08 09:36:43;;;;;;;7.05;1.90;;;;;;;26.55;35.37;102028.78;5249288;28;20032;-71
2022/10/08 09:39:24;;;;;;;6.80;1.80;;;;;;;26.08;34.60;102051.75;5251953;28;20033;-71
2022/10/08 09:42:16;;;;;;;7.28;2.03;;;;;;;26.34;36.41;102048.09;5265724;28;20028;-71
2022/10/08 09:44:50;;;;;;;7.75;1.77;;;;;;;26.50;33.64;102038.34;5245076;28;20182;-71
2022/10/08 09:47:23;;;;;;;7.22;1.50;;;;;;;27.77;33.30;102044.81;5240313;28;20226;-73
2022/10/08 09:50:18;;;;;;;6.32;1.48;;;;;;;28.33;33.01;102058.22;5246121;28;20044;-72
2022/10/08 09:52:54;;;;;;;7.35;1.73;;;;;;;26.87;32.00;102061.16;5249623;28;20036;-71
2022/10/08 09:55:29;;;;;;;4.70;1.55;;;;;;;26.48;35.10;102073.44;5261701;28;20500;-71
2022/10/08 09:58:02;;;;;;;5.45;1.48;;;;;;;26.37;34.04;102076.47;5261450;28;20228;-71
2022/10/08 10:00:36;;;;;;;6.45;2.03;;;;;;;26.45;33.82;102071.94;5267016;28;20033;-71
2022/10/08 10:03:16;;;;;;;5.40;1.60;;;;;;;25.88;34.74;102067.34;5252006;28;20746;-71
2022/10/08 10:05:52;;;;;;;7.18;1.05;;;;;;;25.32;35.24;102069.50;5261460;28;20116;-71
2022/10/08 10:08:48;;;;;;;7.30;1.50;;;;;;;24.90;36.35;102079.13;5257175;28;20028;-71
2022/10/08 10:11:42;;;;;;;6.20;1.55;;;;;;;24.79;36.31;102074.84;5249043;28;20080;-72
2022/10/08 10:14:28;;;;;;;6.28;1.75;;;;;;;24.13;37.28;102080.47;5240495;28;20671;-73
2022/10/08 10:17:15;;;;;;;5.35;1.20;;;;;;;23.48;37.35;102071.56;5236088;28;20184;-71
2022/10/08 10:20:00;;;;;;;5.15;1.63;;;;;;;23.52;38.15;102068.47;5242249;28;20036;-73
2022/10/08 10:22:43;;;;;;;4.95;1.35;;;;;;;22.80;39.69;102085.00;5249739;28;20123;-73
2022/10/08 10:25:45;;;;;;;3.88;1.30;;;;;;;23.06;38.42;102077.19;5247526;28;20367;-71
2022/10/08 10:28:51;;;;;;;7.15;2.20;;;;;;;22.64;40.04;102080.25;5252518;28;20087;-72
2022/10/08 10:31:43;;;;;;;8.80;1.30;;;;;;;22.13;39.99;102083.88;5254720;28;20087;-72
2022/10/08 10:34:20;;;;;;;6.55;1.70;;;;;;;21.55;41.88;102082.72;5268231;28;20033;-74
2022/10/08 10:36:58;;;;;;;5.53;1.88;;;;;;;21.02;41.20;102075.59;5261126;28;20036;-72
2022/10/08 10:39:48;;;;;;;6.47;1.65;;;;;;;21.05;42.14;102094.97;5256897;28;20075;-71
2022/10/08 10:42:29;;;;;;;9.02;1.50;;;;;;;20.71;41.60;102088.81;5253902;28;20444;-71
2022/10/08 10:45:12;;;;;;;7.50;1.70;;;;;;;21.55;41.75;102096.03;5262428;28;20563;-71
2022/10/08 10:47:44;;;;;;;6.78;1.58;;;;;;;20.98;42.57;102084.00;5258395;28;20040;-71
2022/10/08 10:50:24;;;;;;;9.68;2.00;;;;;;;21.23;40.88;102093.38;5262919;28;20054;-71
2022/10/08 10:53:17;;;;;;;7.68;1.65;;;;;;;21.11;41.24;102086.44;5269850;28;20043;-71
2022/10/08 10:56:02;;;;;;;3.72;1.20;;;;;;;21.12;41.39;102085.47;5256778;28;20024;-70
2022/10/08 10:58:42;;;;;;;;;;;;;;;21.58;42.03;102091.28;5265056;28;20025;-70
2022/10/08 11:01:25;;;;;;;5.57;1.77;;;;;;;20.85;41.89;102106.31;5257904;28;20305;-71
2022/10/08 11:04:16;;;;;;;6.93;1.40;;;;;;;20.79;42.36;102097.00;5250653;28;20029;-70
2022/10/08 11:07:25;;;;;;;8.80;1.90;;;;;;;21.23;41.52;102098.69;5248168;28;20582;-69
2022/10/08 11:10:14;;;;;;;9.52;1.80;;;;;;;20.78;42.86;102100.66;5246575;28;20025;-70
2022/10/08 11:12:58;;;;;;;9.13;1.83;;;;;;;20.59;42.35;102100.50;5242523;28;20017;-70
2022/10/08 11:15:40;;;;;;;4.95;1.48;;;;;;;20.91;41.57;102104.91;5251682;28;20036;-70
2022/10/08 11:18:14;;;;;;;5.50;1.48;;;;;;;20.52;41.37;102111.66;5256409;28;20551;-71
2022/10/08 11:21:10;;;;;;;6.68;1.70;;;;;;;20.76;42.13;102107.91;5235925;28;20401;-74
2022/10/08 11:23:59;;;;;;;9.02;2.03;;;;;;;20.99;40.77;102106.97;5240739;28;20036;-72
2022/10/08 11:26:39;;;;;;;5.72;1.50;;;;;;;20.06;42.38;102111.78;5262176;28;20025;-71
2022/10/08 11:29:44;;;;;;;11.63;2.40;;;;;;;20.34;42.04;102115.81;5250771;28;20094;-70
2022/10/08 11:32:18;;;;;;;4.55;1.52;;;;;;;20.27;41.86;102121.66;5247669;28;20084;-73
2022/10/08 11:34:56;;;;;;;7.28;1.70;;;;;;;20.46;42.24;102120.13;5248448;28;20036;-71
2022/10/08 11:37:59;;;;;;;9.55;1.92;;;;;;;19.75;44.31;102130.16;5241944;28;20033;-74
2022/10/08 11:40:40;;;;;;;7.30;2.30;;;;;;;19.57;44.51;102124.47;5252810;28;20035;-72
2022/10/08 11:43:51;;;;;;;5.28;1.55;;;;;;;19.74;44.32;102130.28;5267139;28;20066;-70
2022/10/08 11:46:28;;;;;;;7.17;1.57;;;;;;;19.38;44.11;102136.53;5249142;28;20040;-71
2022/10/08 11:49:12;;;;;;;6.43;1.30;;;;;;;19.14;43.84;102128.63;5254545;28;20430;-72
2022/10/08 11:51:50;;;;;;;8.82;1.20;;;;;;;19.63;42.71;102125.81;5256772;28;20499;-72
2022/10/08 11:54:22;;;;;;;6.35;1.40;;;;;;;19.85;41.77;102124.94;5254068;28;20029;-73
2022/10/08 11:57:10;;;;;;;5.83;1.43;;;;;;;20.07;42.56;102121.44;5255313;28;20420;-71